createdAt,value
2023-05-05T00:00:20.936Z,2.67
2023-05-05T00:03:25.716Z,3.13
2023-05-05T00:06:29.570Z,3.37
2023-05-05T00:09:33.038Z,3.33
2023-05-05T00:12:37.895Z,3.00
2023-05-05T00:15:42.961Z,3.00
2023-05-05T00:18:46.433Z,2.80
2023-05-05T00:21:49.851Z,3.60
2023-05-05T00:24:53.332Z,2.70
2023-05-05T00:27:58.276Z,3.53
2023-05-05T00:31:01.850Z,2.83
2023-05-05T00:34:05.451Z,3.10
2023-05-05T00:37:09.005Z,2.70
2023-05-05T00:40:13.760Z,2.97
2023-05-05T00:43:18.655Z,3.30
2023-05-05T00:46:27.326Z,3.00
2023-05-05T00:49:31.540Z,3.07
2023-05-05T00:52:35.792Z,3.40
2023-05-05T00:55:39.428Z,3.17
2023-05-05T00:58:45.441Z,3.07
2023-05-05T01:01:49.054Z,2.80
2023-05-05T01:04:52.979Z,3.27
2023-05-05T01:08:23.061Z,3.70
2023-05-05T01:11:35.519Z,3.57
2023-05-05T01:14:44.322Z,3.83
2023-05-05T01:18:01.376Z,3.83
2023-05-05T01:21:14.561Z,3.20
2023-05-05T01:24:58.108Z,3.57
2023-05-05T01:28:29.223Z,3.37
2023-05-05T01:31:53.470Z,3.17
2023-05-05T01:35:03.342Z,3.13
2023-05-05T01:38:14.831Z,3.13
2023-05-05T01:41:26.458Z,3.47
2023-05-05T01:44:32.089Z,3.27
2023-05-05T01:47:40.404Z,3.53
2023-05-05T01:50:48.516Z,2.77
2023-05-05T01:53:55.569Z,3.00
2023-05-05T01:57:00.928Z,2.97
2023-05-05T02:00:05.977Z,3.70
2023-05-05T02:03:13.520Z,3.33
2023-05-05T02:06:20.479Z,3.17
2023-05-05T02:09:29.475Z,3.20
2023-05-05T02:12:35.204Z,3.00
2023-05-05T02:15:41.531Z,3.03
2023-05-05T02:18:49.127Z,3.77
2023-05-05T02:21:52.637Z,3.30
2023-05-05T02:24:56.451Z,2.93
2023-05-05T02:28:02.279Z,3.20
2023-05-05T02:31:09.764Z,3.30
2023-05-05T02:34:20.212Z,3.17
2023-05-05T02:37:31.101Z,3.70
2023-05-05T02:40:38.578Z,3.87
2023-05-05T02:43:45.632Z,3.10
2023-05-05T02:46:49.349Z,3.67
2023-05-05T02:49:54.621Z,3.47
2023-05-05T02:52:58.587Z,3.57
2023-05-05T02:56:17.757Z,3.43
2023-05-05T02:59:41.072Z,3.60
2023-05-05T03:02:56.774Z,3.37
2023-05-05T03:06:12.576Z,3.43
2023-05-05T03:09:27.538Z,3.47
2023-05-05T03:12:41.246Z,3.73
2023-05-05T03:15:49.235Z,3.73
2023-05-05T03:18:54.534Z,3.00
2023-05-05T03:22:00.451Z,3.33
2023-05-05T03:25:04.018Z,3.20
2023-05-05T03:28:07.549Z,3.80
2023-05-05T03:31:11.440Z,4.03
2023-05-05T03:34:14.990Z,3.30
2023-05-05T03:37:19.945Z,3.30
2023-05-05T03:40:36.235Z,3.27
2023-05-05T03:43:47.019Z,3.87
2023-05-05T03:46:50.512Z,3.47
2023-05-05T03:49:54.053Z,3.80
2023-05-05T03:52:59.768Z,3.20
2023-05-05T03:56:03.306Z,3.20
2023-05-05T03:59:06.812Z,2.80
2023-05-05T04:02:10.307Z,2.97
2023-05-05T04:05:13.812Z,3.43
2023-05-05T04:08:18.667Z,3.03
2023-05-05T04:11:22.523Z,3.53
2023-05-05T04:14:26.087Z,3.30
2023-05-05T04:17:29.591Z,3.43
2023-05-05T04:20:36.027Z,2.97
2023-05-05T04:23:40.965Z,3.27
2023-05-05T04:26:44.383Z,3.27
2023-05-05T04:29:47.924Z,3.30
2023-05-05T04:32:51.360Z,3.33
2023-05-05T04:35:54.847Z,3.47
2023-05-05T04:38:59.725Z,3.30
2023-05-05T04:42:03.396Z,3.33
2023-05-05T04:45:08.264Z,2.73
2023-05-05T04:48:11.795Z,3.40
2023-05-05T04:51:18.024Z,2.87
2023-05-05T04:54:23.078Z,3.47
2023-05-05T04:57:26.624Z,3.17
2023-05-05T05:00:30.412Z,3.20
2023-05-05T05:03:34.104Z,3.33
2023-05-05T05:06:37.977Z,3.23
2023-05-05T05:09:42.857Z,3.07
2023-05-05T05:12:48.626Z,3.50
2023-05-05T05:15:52.470Z,2.97
2023-05-05T05:18:56.056Z,3.30
2023-05-05T05:21:59.584Z,2.90
2023-05-05T05:25:04.616Z,3.17
2023-05-05T05:28:10.732Z,3.50
2023-05-05T05:31:14.579Z,3.30
2023-05-05T05:34:18.096Z,3.13
2023-05-05T05:37:21.885Z,3.70
2023-05-05T05:40:26.879Z,3.40
2023-05-05T05:43:30.714Z,3.50
2023-05-05T05:46:34.325Z,3.47
2023-05-05T05:49:37.964Z,3.13
2023-05-05T05:52:41.500Z,3.37
2023-05-05T05:55:47.497Z,3.63
2023-05-05T05:58:51.642Z,2.97
2023-05-05T06:01:57.023Z,3.17
2023-05-05T06:05:00.913Z,3.13
2023-05-05T06:08:04.534Z,2.93
2023-05-05T06:11:09.387Z,3.20
2023-05-05T06:14:12.951Z,3.30
2023-05-05T06:17:16.424Z,3.07
2023-05-05T06:20:20.034Z,3.20
2023-05-05T06:23:23.643Z,2.90
2023-05-05T06:26:28.605Z,3.53
2023-05-05T06:29:32.139Z,3.13
2023-05-05T06:32:35.609Z,3.13
2023-05-05T06:35:39.152Z,3.03
2023-05-05T06:38:42.667Z,2.97
2023-05-05T06:41:47.467Z,3.57
2023-05-05T06:44:51.148Z,3.20
2023-05-05T06:47:54.715Z,2.83
2023-05-05T06:50:58.237Z,3.23
2023-05-05T06:54:01.700Z,3.43
2023-05-05T06:57:06.569Z,3.27
2023-05-05T07:00:12.077Z,2.80
2023-05-05T07:03:15.792Z,2.80
2023-05-05T07:06:19.538Z,3.17
2023-05-05T07:09:23.170Z,3.37
2023-05-05T07:12:31.286Z,3.33
2023-05-05T07:15:47.287Z,2.87
2023-05-05T07:18:50.885Z,2.90
2023-05-05T07:21:54.441Z,3.17
2023-05-05T07:24:58.162Z,3.60
2023-05-05T07:28:03.366Z,2.90
2023-05-05T07:31:07.088Z,3.23
2023-05-05T07:34:10.703Z,3.40
2023-05-05T07:37:14.807Z,3.63
2023-05-05T07:40:18.438Z,3.17
2023-05-05T07:43:23.530Z,3.30
2023-05-05T07:46:27.186Z,3.27
2023-05-05T07:49:30.837Z,3.77
2023-05-05T07:52:45.086Z,3.50
2023-05-05T07:55:51.762Z,2.90
2023-05-05T07:58:56.754Z,3.67
2023-05-05T08:02:00.321Z,4.00
2023-05-05T08:05:04.683Z,3.50
2023-05-05T08:08:08.374Z,4.20
2023-05-05T08:11:11.955Z,4.30
2023-05-05T08:14:18.358Z,4.13
2023-05-05T08:17:21.977Z,4.17
2023-05-05T08:20:30.310Z,4.73
2023-05-05T08:23:34.196Z,4.60
2023-05-05T08:26:37.828Z,4.57
2023-05-05T08:29:42.733Z,4.53
2023-05-05T08:32:46.875Z,4.70
2023-05-05T08:35:50.980Z,4.70
2023-05-05T08:38:54.920Z,4.30
2023-05-05T08:41:59.071Z,4.17
2023-05-05T08:45:04.203Z,4.80
2023-05-05T08:48:07.959Z,3.80
2023-05-05T08:51:17.696Z,4.00
2023-05-05T08:54:24.700Z,3.43
2023-05-05T08:57:40.505Z,3.73
2023-05-05T09:00:47.388Z,3.67
2023-05-05T09:03:52.752Z,3.40
2023-05-05T09:06:59.439Z,3.27
2023-05-05T09:10:06.133Z,3.70
2023-05-05T09:13:09.931Z,3.57
2023-05-05T09:16:34.995Z,3.20
2023-05-05T09:20:04.850Z,3.47
2023-05-05T09:23:14.195Z,4.00
2023-05-05T09:26:17.756Z,3.90
2023-05-05T09:29:22.702Z,3.63
2023-05-05T09:32:30.518Z,4.10
2023-05-05T09:35:50.055Z,4.47
2023-05-05T09:39:09.389Z,4.77
2023-05-05T09:42:19.949Z,4.57
2023-05-05T09:45:28.451Z,4.40
2023-05-05T09:48:33.925Z,4.43
2023-05-05T09:51:37.796Z,4.70
2023-05-05T09:54:41.897Z,5.07
2023-05-05T09:57:47.533Z,4.53
2023-05-05T10:00:52.060Z,4.47
2023-05-05T10:03:57.325Z,3.60
2023-05-05T10:07:01.153Z,4.10
2023-05-05T10:10:07.113Z,4.80
2023-05-05T10:13:12.916Z,4.40
2023-05-05T10:16:20.911Z,3.67
2023-05-05T10:19:28.928Z,4.43
2023-05-05T10:22:36.593Z,3.60
2023-05-05T10:25:54.220Z,3.77
2023-05-05T10:29:01.499Z,3.70
2023-05-05T10:32:37.002Z,3.70
2023-05-05T10:35:42.757Z,3.97
2023-05-05T10:38:47.860Z,3.40
2023-05-05T10:41:53.350Z,3.70
2023-05-05T10:44:56.865Z,3.67
2023-05-05T10:48:07.789Z,3.97
2023-05-05T10:51:39.442Z,3.83
2023-05-05T10:54:51.564Z,3.73
2023-05-05T10:57:55.994Z,3.90
2023-05-05T11:00:59.497Z,4.00
2023-05-05T11:04:23.316Z,4.23
2023-05-05T11:07:28.257Z,4.00
2023-05-05T11:10:45.984Z,3.70
2023-05-05T11:14:22.393Z,3.50
2023-05-05T11:17:46.590Z,4.00
2023-05-05T11:21:17.600Z,3.90
2023-05-05T11:24:30.688Z,3.67
2023-05-05T11:28:08.055Z,4.07
2023-05-05T11:31:20.275Z,4.37
2023-05-05T11:34:29.032Z,4.30
2023-05-05T11:37:32.577Z,4.10
2023-05-05T11:40:43.088Z,4.27
2023-05-05T11:43:46.850Z,3.70
2023-05-05T11:47:35.272Z,4.10
2023-05-05T11:50:39.929Z,4.80
2023-05-05T11:53:44.489Z,4.10
2023-05-05T11:56:54.990Z,3.93
2023-05-05T12:00:01.756Z,4.43
2023-05-05T12:03:06.443Z,3.67
2023-05-05T12:06:11.143Z,4.30
2023-05-05T12:09:18.189Z,4.23
2023-05-05T12:12:40.219Z,4.00
2023-05-05T12:15:44.493Z,4.00
2023-05-05T12:19:33.127Z,3.87
2023-05-05T12:22:42.693Z,3.60
2023-05-05T12:25:48.514Z,4.80
2023-05-05T12:28:57.152Z,5.10
2023-05-05T12:32:05.237Z,4.17
2023-05-05T12:35:10.819Z,3.53
2023-05-05T12:38:16.705Z,4.23
2023-05-05T12:41:21.249Z,5.03
2023-05-05T12:44:35.910Z,4.20
2023-05-05T12:47:44.069Z,4.13
2023-05-05T12:50:47.683Z,4.57
2023-05-05T12:54:05.365Z,4.57
2023-05-05T12:57:13.086Z,4.40
2023-05-05T13:00:19.047Z,4.30
2023-05-05T13:03:22.717Z,4.00
2023-05-05T13:06:27.392Z,5.30
2023-05-05T13:09:33.981Z,4.03
2023-05-05T13:12:37.716Z,3.93
2023-05-05T13:15:42.767Z,4.17
2023-05-05T13:18:46.546Z,4.43
2023-05-05T13:21:52.618Z,4.30
2023-05-05T13:24:58.937Z,5.20
2023-05-05T13:28:02.634Z,4.60
2023-05-05T13:31:08.342Z,4.37
2023-05-05T13:34:12.215Z,4.60
2023-05-05T13:37:15.748Z,4.77
2023-05-05T13:40:19.301Z,4.50
2023-05-05T13:43:22.924Z,5.10
2023-05-05T13:46:28.310Z,4.37
2023-05-05T13:49:33.134Z,4.97
2023-05-05T13:52:37.522Z,4.57
2023-05-05T13:55:41.205Z,4.53
2023-05-05T13:58:44.768Z,4.30
2023-05-05T14:01:50.179Z,4.80
2023-05-05T14:04:53.754Z,4.80
2023-05-05T14:07:57.327Z,5.07
2023-05-05T14:11:01.985Z,5.00
2023-05-05T14:14:06.171Z,4.90
2023-05-05T14:17:11.608Z,3.80
2023-05-05T14:20:15.242Z,4.67
2023-05-05T14:23:18.680Z,5.43
2023-05-05T14:26:22.238Z,5.03
2023-05-05T14:29:25.701Z,5.80
2023-05-05T14:32:30.660Z,5.60
2023-05-05T14:35:34.188Z,5.50
2023-05-05T14:38:37.783Z,4.43
2023-05-05T14:41:41.411Z,4.50
2023-05-05T14:44:44.984Z,5.23
2023-05-05T14:47:49.965Z,5.10
2023-05-05T14:50:53.440Z,4.37
2023-05-05T14:53:56.997Z,4.30
2023-05-05T14:57:00.617Z,4.93
2023-05-05T15:00:05.210Z,3.90
2023-05-05T15:03:10.539Z,4.83
2023-05-05T15:06:14.461Z,4.27
2023-05-05T15:09:18.113Z,4.17
2023-05-05T15:12:21.573Z,3.80
2023-05-05T15:15:25.074Z,4.07
2023-05-05T15:18:30.026Z,3.80
2023-05-05T15:21:33.718Z,4.33
2023-05-05T15:24:37.308Z,4.10
2023-05-05T15:27:41.004Z,4.70
2023-05-05T15:30:44.533Z,5.23
2023-05-05T15:33:50.165Z,4.43
2023-05-05T15:36:54.555Z,4.17
2023-05-05T15:39:58.080Z,4.10
2023-05-05T15:43:01.628Z,4.23
2023-05-05T15:46:05.221Z,4.80
2023-05-05T15:49:10.722Z,4.30
2023-05-05T15:52:14.269Z,4.50
2023-05-05T15:55:19.093Z,4.50
2023-05-05T15:58:22.575Z,4.03
2023-05-05T16:01:26.213Z,3.90
2023-05-05T16:04:31.248Z,3.43
2023-05-05T16:07:34.845Z,3.73
2023-05-05T16:10:38.593Z,5.03
2023-05-05T16:13:42.650Z,4.90
2023-05-05T16:16:46.253Z,4.03
2023-05-05T16:19:51.252Z,4.43
2023-05-05T16:22:54.882Z,4.60
2023-05-05T16:25:58.384Z,4.83
2023-05-05T16:29:01.836Z,5.77
2023-05-05T16:32:06.165Z,8.10
2023-05-05T16:35:12.208Z,14.53
2023-05-05T16:38:15.704Z,4.33
2023-05-05T16:41:19.266Z,4.30
2023-05-05T16:44:22.844Z,5.53
2023-05-05T16:47:27.253Z,5.07
2023-05-05T16:50:32.340Z,4.30
2023-05-05T16:53:35.925Z,5.63
2023-05-05T16:56:39.517Z,4.93
2023-05-05T16:59:42.944Z,5.90
2023-05-05T17:02:46.482Z,5.43
2023-05-05T17:05:54.119Z,10.17
2023-05-05T17:08:57.613Z,8.00
2023-05-05T17:12:01.098Z,6.50
2023-05-05T17:15:10.593Z,6.87
2023-05-05T17:18:20.395Z,6.57
2023-05-05T17:21:25.508Z,7.30
2023-05-05T17:24:29.298Z,8.63
2023-05-05T17:27:33.502Z,7.83
2023-05-05T17:30:41.739Z,8.57
2023-05-05T17:43:31.419Z,8.83
2023-05-05T17:46:49.872Z,10.13
2023-05-05T17:49:55.796Z,10.17
2023-05-05T17:52:59.571Z,10.60
2023-05-05T17:56:06.527Z,11.23
2023-05-05T17:59:11.718Z,12.07
2023-05-05T18:02:15.394Z,12.57
2023-05-05T18:05:19.285Z,11.43
2023-05-05T18:08:23.307Z,12.50
2023-05-05T18:11:30.739Z,12.13
2023-05-05T18:14:35.866Z,11.93
2023-05-05T18:17:45.150Z,12.50
2023-05-05T18:20:51.377Z,12.97
2023-05-05T18:23:59.501Z,13.40
2023-05-05T18:27:14.475Z,16.00
2023-05-05T18:30:18.397Z,15.50
2023-05-05T18:33:22.036Z,14.13
2023-05-05T18:36:27.711Z,15.90
2023-05-05T18:39:31.316Z,15.47
2023-05-05T18:42:37.319Z,15.33
2023-05-05T18:45:40.854Z,14.13
2023-05-05T18:48:44.558Z,16.10
2023-05-05T18:51:48.068Z,14.87
2023-05-05T18:54:51.662Z,14.80
2023-05-05T18:57:56.669Z,21.33
2023-05-05T19:01:00.290Z,17.10
2023-05-05T19:04:05.375Z,15.17
2023-05-05T19:07:14.511Z,17.97
2023-05-05T19:10:24.821Z,18.33
2023-05-05T19:13:29.797Z,19.33
2023-05-05T19:16:33.424Z,19.73
2023-05-05T19:19:37.169Z,18.23
2023-05-05T19:22:40.876Z,17.13
2023-05-05T19:25:44.829Z,16.37
2023-05-05T19:28:49.705Z,14.90
2023-05-05T19:31:53.322Z,14.70
2023-05-05T19:34:56.993Z,14.57
2023-05-05T19:38:00.976Z,12.67
2023-05-05T19:41:04.444Z,13.27
2023-05-05T19:44:09.281Z,11.83
2023-05-05T19:47:12.901Z,10.90
2023-05-05T19:50:16.636Z,9.77
2023-05-05T19:53:20.192Z,10.20
2023-05-05T19:56:24.025Z,9.53
2023-05-05T19:59:29.012Z,8.90
2023-05-05T20:02:33.743Z,9.07
2023-05-05T20:05:39.190Z,9.60
2023-05-05T20:08:42.663Z,9.63
2023-05-05T20:11:46.129Z,10.07
2023-05-05T20:14:51.558Z,10.57
2023-05-05T20:17:55.168Z,10.73
2023-05-05T20:20:59.945Z,10.40
2023-05-05T20:24:03.380Z,9.53
2023-05-05T20:27:08.335Z,9.37
2023-05-05T20:30:14.516Z,9.93
2023-05-05T20:33:18.100Z,10.13
2023-05-05T20:36:22.852Z,10.57
2023-05-05T20:39:28.482Z,9.00
2023-05-05T20:42:31.920Z,9.47
2023-05-05T20:45:37.180Z,10.33
2023-05-05T20:48:43.000Z,12.13
2023-05-05T20:51:46.715Z,11.27
2023-05-05T20:54:50.173Z,11.73
2023-05-05T20:57:53.637Z,10.90
2023-05-05T21:00:58.699Z,10.73
2023-05-05T21:04:02.395Z,10.90
2023-05-05T21:07:06.630Z,10.73
2023-05-05T21:10:11.929Z,11.73
2023-05-05T21:13:15.683Z,12.43
2023-05-05T21:16:21.076Z,10.60
2023-05-05T21:19:24.607Z,10.97
2023-05-05T21:22:28.277Z,11.20
2023-05-05T21:25:32.054Z,10.93
2023-05-05T21:28:35.578Z,10.73
2023-05-05T21:31:40.662Z,10.60
2023-05-05T21:34:44.199Z,10.70
2023-05-05T21:37:48.008Z,10.67
2023-05-05T21:40:57.546Z,10.73
2023-05-05T21:44:01.123Z,10.90
2023-05-05T21:47:06.487Z,11.40
2023-05-05T21:50:11.205Z,11.00
2023-05-05T21:53:14.971Z,11.63
2023-05-05T21:56:18.464Z,11.60
2023-05-05T21:59:22.033Z,12.73
2023-05-05T22:02:26.910Z,12.07
2023-05-05T22:05:31.541Z,13.00
2023-05-05T22:08:34.979Z,13.20
2023-05-05T22:11:38.417Z,13.33
2023-05-05T22:14:41.874Z,12.77
2023-05-05T22:17:46.989Z,13.63
2023-05-05T22:20:51.426Z,12.43
2023-05-05T22:23:54.992Z,12.90
2023-05-05T22:26:58.570Z,12.57
2023-05-05T22:30:02.275Z,13.27
2023-05-05T22:33:07.452Z,14.00
2023-05-05T22:36:11.557Z,13.27
2023-05-05T22:39:15.151Z,13.07
2023-05-05T22:42:18.676Z,13.73
2023-05-05T22:45:32.021Z,13.47
2023-05-05T22:48:37.003Z,13.13
2023-05-05T22:51:40.482Z,13.67
2023-05-05T22:54:44.085Z,14.20
2023-05-05T22:57:47.693Z,14.87
2023-05-05T23:00:51.399Z,15.50
2023-05-05T23:03:56.417Z,15.73
2023-05-05T23:06:59.986Z,15.67
2023-05-05T23:10:03.758Z,15.40
2023-05-05T23:13:07.526Z,16.37
2023-05-05T23:16:11.868Z,15.93
2023-05-05T23:19:16.853Z,16.43
2023-05-05T23:22:20.396Z,16.43
2023-05-05T23:25:23.962Z,17.27
2023-05-05T23:28:27.581Z,17.60
2023-05-05T23:31:31.389Z,17.37
2023-05-05T23:34:36.294Z,16.13
2023-05-05T23:37:39.821Z,17.30
2023-05-05T23:40:43.350Z,16.10
2023-05-05T23:43:47.177Z,17.90
2023-05-05T23:46:50.729Z,18.57
2023-05-05T23:49:55.600Z,17.97
2023-05-05T23:52:59.181Z,17.83
2023-05-05T23:56:02.795Z,17.30
2023-05-05T23:59:06.303Z,17.90
